createdAt,value
2022-08-18T00:02:12.366Z,26.81
2022-08-18T00:04:43.406Z,26.66
2022-08-18T00:07:26.349Z,26.60
2022-08-18T00:09:53.871Z,26.77
2022-08-18T00:12:36.041Z,26.76
2022-08-18T00:15:06.120Z,26.84
2022-08-18T00:17:34.746Z,26.80
2022-08-18T00:20:02.545Z,26.76
2022-08-18T00:22:29.366Z,26.76
2022-08-18T00:24:58.336Z,26.69
2022-08-18T00:27:31.764Z,26.74
2022-08-18T00:30:02.473Z,26.81
2022-08-18T00:32:41.711Z,26.68
2022-08-18T00:35:14.323Z,26.57
2022-08-18T00:37:42.920Z,26.69
2022-08-18T00:40:16.390Z,26.69
2022-08-18T00:42:52.702Z,26.62
2022-08-18T00:45:26.109Z,26.62
2022-08-18T00:47:54.159Z,26.48
2022-08-18T00:50:34.643Z,26.53
2022-08-18T00:53:50.310Z,26.49
2022-08-18T00:56:34.492Z,26.49
2022-08-18T00:59:45.363Z,26.35
2022-08-18T01:02:22.204Z,26.37
2022-08-18T01:05:02.682Z,26.21
2022-08-18T01:07:47.677Z,26.24
2022-08-18T01:10:21.865Z,26.24
2022-08-18T01:12:54.031Z,26.19
2022-08-18T01:15:28.288Z,26.20
2022-08-18T01:18:27.481Z,26.12
2022-08-18T01:21:39.605Z,26.04
2022-08-18T01:24:12.826Z,26.05
2022-08-18T01:26:46.366Z,26.00
2022-08-18T01:29:18.745Z,26.00
2022-08-18T01:31:56.101Z,25.98
2022-08-18T01:34:28.264Z,25.96
2022-08-18T01:36:55.669Z,25.91
2022-08-18T01:41:06.276Z,25.91
2022-08-18T01:42:12.726Z,25.92
2022-08-18T01:44:43.342Z,25.91
2022-08-18T01:47:12.547Z,25.85
2022-08-18T01:49:43.142Z,25.83
2022-08-18T01:52:17.854Z,25.76
2022-08-18T01:54:44.760Z,25.78
2022-08-18T01:57:13.409Z,25.81
2022-08-18T01:59:42.165Z,25.71
2022-08-18T02:02:18.117Z,25.73
2022-08-18T02:04:47.396Z,25.74
2022-08-18T02:07:14.999Z,25.71
2022-08-18T02:09:43.644Z,25.71
2022-08-18T02:12:11.433Z,25.67
2022-08-18T02:14:39.601Z,25.69
2022-08-18T02:17:09.703Z,25.62
2022-08-18T02:19:43.194Z,25.64
2022-08-18T02:22:20.238Z,25.61
2022-08-18T02:24:47.707Z,25.62
2022-08-18T02:27:16.800Z,25.63
2022-08-18T02:29:44.209Z,25.60
2022-08-18T02:32:11.090Z,25.59
2022-08-18T02:34:37.914Z,25.60
2022-08-18T02:37:04.934Z,25.60
2022-08-18T02:39:37.914Z,25.57
2022-08-18T02:42:09.074Z,25.53
2022-08-18T02:44:36.270Z,25.53
2022-08-18T02:47:03.552Z,25.52
2022-08-18T02:49:30.421Z,25.55
2022-08-18T02:51:57.653Z,25.51
2022-08-18T02:54:25.457Z,25.50
2022-08-18T02:56:53.308Z,25.52
2022-08-18T02:59:27.729Z,25.47
2022-08-18T03:01:56.531Z,25.46
2022-08-18T03:04:30.223Z,25.44
2022-08-18T03:07:01.758Z,25.45
2022-08-18T03:09:29.955Z,25.42
2022-08-18T03:11:58.217Z,25.41
2022-08-18T03:14:25.461Z,25.43
2022-08-18T03:16:53.997Z,25.37
2022-08-18T03:19:24.908Z,25.35
2022-08-18T03:21:52.747Z,25.35
2022-08-18T03:24:22.598Z,25.31
2022-08-18T03:26:52.613Z,25.29
2022-08-18T03:29:21.043Z,25.23
2022-08-18T03:31:48.737Z,25.24
2022-08-18T03:34:20.756Z,25.18
2022-08-18T03:36:51.843Z,25.21
2022-08-18T03:39:23.394Z,25.18
2022-08-18T03:41:59.487Z,25.21
2022-08-18T03:44:32.002Z,25.23
2022-08-18T03:47:01.441Z,25.14
2022-08-18T03:49:28.316Z,25.11
2022-08-18T03:51:55.790Z,25.08
2022-08-18T03:54:22.924Z,25.09
2022-08-18T03:56:49.989Z,25.05
2022-08-18T03:59:22.692Z,25.03
2022-08-18T04:01:53.765Z,25.10
2022-08-18T04:04:25.924Z,25.15
2022-08-18T04:06:58.464Z,25.12
2022-08-18T04:09:28.556Z,25.10
2022-08-18T04:11:56.520Z,25.11
2022-08-18T04:14:31.577Z,25.12
2022-08-18T04:16:59.442Z,25.12
2022-08-18T04:19:27.228Z,25.11
2022-08-18T04:21:58.431Z,25.16
2022-08-18T04:24:31.236Z,25.17
2022-08-18T04:27:04.791Z,25.13
2022-08-18T04:29:32.220Z,25.09
2022-08-18T04:32:05.654Z,25.07
2022-08-18T04:34:33.839Z,25.06
2022-08-18T04:37:02.321Z,25.07
2022-08-18T04:39:30.204Z,25.06
2022-08-18T04:41:57.128Z,25.07
2022-08-18T04:44:23.932Z,25.06
2022-08-18T04:46:54.360Z,25.04
2022-08-18T04:49:25.862Z,25.05
2022-08-18T04:52:39.346Z,25.02
2022-08-18T04:55:01.565Z,25.03
2022-08-18T04:57:29.331Z,25.01
2022-08-18T05:00:00.926Z,25.06
2022-08-18T05:02:28.079Z,25.07
2022-08-18T05:04:55.000Z,25.08
2022-08-18T05:07:25.553Z,25.05
2022-08-18T05:09:54.041Z,25.04
2022-08-18T05:12:22.875Z,25.03
2022-08-18T05:14:57.095Z,25.07
2022-08-18T05:17:29.055Z,25.09
2022-08-18T05:19:59.935Z,25.14
2022-08-18T05:22:28.703Z,25.14
2022-08-18T05:24:58.116Z,25.16
2022-08-18T05:27:25.013Z,25.14
2022-08-18T05:29:52.011Z,25.12
2022-08-18T05:32:36.916Z,25.18
2022-08-18T05:35:20.272Z,25.17
2022-08-18T05:38:06.994Z,25.19
2022-08-18T05:40:36.234Z,25.25
2022-08-18T05:43:06.577Z,25.19
2022-08-18T05:45:34.845Z,25.14
2022-08-18T05:48:02.098Z,25.19
2022-08-18T05:50:35.364Z,25.25
2022-08-18T05:53:14.841Z,25.26
2022-08-18T05:56:18.705Z,25.32
2022-08-18T05:58:52.888Z,25.38
2022-08-18T06:01:27.535Z,25.46
2022-08-18T06:04:06.077Z,25.47
2022-08-18T06:06:36.511Z,25.49
2022-08-18T06:09:31.822Z,25.53
2022-08-18T06:12:17.301Z,25.58
2022-08-18T06:14:44.559Z,25.64
2022-08-18T06:17:37.520Z,25.66
2022-08-18T06:20:33.282Z,25.69
2022-08-18T06:23:55.756Z,25.72
2022-08-18T06:26:57.815Z,25.70
2022-08-18T06:30:05.314Z,25.79
2022-08-18T06:32:46.909Z,25.80
2022-08-18T06:35:40.821Z,25.82
2022-08-18T06:39:02.772Z,25.83
2022-08-18T06:41:43.825Z,25.81
2022-08-18T06:44:13.008Z,25.88
2022-08-18T06:47:26.319Z,25.88
2022-08-18T06:50:03.073Z,25.91
2022-08-18T06:52:38.348Z,25.95
2022-08-18T06:55:35.057Z,26.00
2022-08-18T06:58:29.952Z,26.06
2022-08-18T07:01:02.780Z,26.11
2022-08-18T07:03:39.007Z,26.16
2022-08-18T07:06:23.771Z,26.27
2022-08-18T07:09:15.448Z,26.34
2022-08-18T07:12:04.866Z,26.47
2022-08-18T07:14:43.024Z,26.61
2022-08-18T07:17:18.692Z,26.67
2022-08-18T07:20:00.377Z,26.79
2022-08-18T07:22:30.008Z,26.85
2022-08-18T07:25:06.895Z,26.93
2022-08-18T07:27:49.991Z,27.01
2022-08-18T07:30:20.087Z,27.08
2022-08-18T07:33:04.810Z,27.14
2022-08-18T07:35:54.100Z,27.22
2022-08-18T07:38:43.032Z,27.27
2022-08-18T07:41:30.421Z,27.33
2022-08-18T07:44:23.494Z,27.35
2022-08-18T07:47:07.000Z,27.35
2022-08-18T07:49:43.014Z,27.41
2022-08-18T07:52:57.059Z,27.39
2022-08-18T07:55:36.058Z,27.39
2022-08-18T07:58:47.714Z,27.37
2022-08-18T08:01:41.187Z,27.38
2022-08-18T08:04:48.643Z,27.31
2022-08-18T08:07:25.170Z,27.32
2022-08-18T08:10:03.322Z,27.31
2022-08-18T08:12:41.809Z,27.30
2022-08-18T08:15:37.918Z,27.26
2022-08-18T08:18:47.552Z,27.17
2022-08-18T08:21:28.503Z,27.11
2022-08-18T08:24:49.567Z,27.08
2022-08-18T08:27:48.712Z,27.05
2022-08-18T08:30:21.177Z,26.99
2022-08-18T08:32:59.934Z,26.98
2022-08-18T08:35:53.390Z,26.93
2022-08-18T08:38:42.384Z,26.95
2022-08-18T08:41:36.164Z,26.91
2022-08-18T08:44:12.247Z,26.91
2022-08-18T08:46:55.394Z,26.88
2022-08-18T08:50:06.995Z,26.84
2022-08-18T08:52:48.786Z,26.83
2022-08-18T08:55:28.327Z,26.79
2022-08-18T08:58:26.385Z,26.78
2022-08-18T09:00:55.859Z,26.79
2022-08-18T09:04:02.939Z,26.80
2022-08-18T09:06:58.289Z,26.83
2022-08-18T09:09:46.338Z,26.90
2022-08-18T09:12:13.110Z,26.98
2022-08-18T09:15:03.719Z,27.06
2022-08-18T09:18:12.936Z,27.12
2022-08-18T09:20:49.588Z,27.14
2022-08-18T09:23:41.149Z,27.24
2022-08-18T09:26:39.525Z,27.42
2022-08-18T09:29:44.439Z,27.61
2022-08-18T09:32:22.864Z,27.88
2022-08-18T09:35:27.565Z,28.18
2022-08-18T09:38:26.044Z,28.45
2022-08-18T09:41:34.704Z,28.77
2022-08-18T09:44:21.621Z,29.01
2022-08-18T09:46:56.307Z,29.24
2022-08-18T09:49:27.792Z,29.50
2022-08-18T09:51:56.374Z,29.70
2022-08-18T09:54:33.464Z,29.95
2022-08-18T09:57:03.929Z,30.10
2022-08-18T09:59:35.479Z,30.17
2022-08-18T10:05:29.236Z,30.20
2022-08-18T10:08:07.762Z,30.21
2022-08-18T10:11:01.478Z,30.27
2022-08-18T10:13:59.808Z,30.41
2022-08-18T10:17:23.807Z,30.46
2022-08-18T10:20:25.842Z,30.49
2022-08-18T10:22:56.485Z,30.54
2022-08-18T10:25:39.395Z,30.57
2022-08-18T10:28:31.682Z,30.62
2022-08-18T10:31:10.354Z,30.63
2022-08-18T10:34:16.329Z,30.65
2022-08-18T10:37:01.498Z,30.68
2022-08-18T10:39:42.255Z,30.79
2022-08-18T10:42:40.092Z,30.85
2022-08-18T10:45:30.538Z,30.88
2022-08-18T10:51:30.057Z,30.99
2022-08-18T10:54:52.026Z,31.13
2022-08-18T10:58:09.606Z,31.25
2022-08-18T11:01:20.429Z,31.42
2022-08-18T11:07:19.613Z,31.67
2022-08-18T11:10:04.702Z,31.77
2022-08-18T11:13:21.735Z,31.87
2022-08-18T11:16:13.438Z,31.99
2022-08-18T11:18:43.276Z,32.09
2022-08-18T11:21:54.910Z,32.21
2022-08-18T11:24:25.392Z,32.30
2022-08-18T11:27:17.946Z,32.39
2022-08-18T11:29:46.596Z,32.51
2022-08-18T11:32:32.420Z,32.54
2022-08-18T11:35:02.066Z,32.62
2022-08-18T11:37:49.507Z,32.65
2022-08-18T11:46:33.345Z,32.74
2022-08-18T11:49:24.200Z,32.78
2022-08-18T11:51:57.615Z,32.85
2022-08-18T11:57:58.643Z,32.87
2022-08-18T12:01:03.275Z,32.94
2022-08-18T12:03:51.093Z,32.98
2022-08-18T12:06:30.510Z,33.06
2022-08-18T12:09:07.937Z,33.08
2022-08-18T12:11:48.975Z,33.14
2022-08-18T12:14:31.945Z,33.21
2022-08-18T12:19:48.359Z,33.33
2022-08-18T12:22:24.301Z,33.37
2022-08-18T12:24:52.615Z,33.38
2022-08-18T12:27:24.503Z,33.44
2022-08-18T12:29:53.726Z,33.48
2022-08-18T12:32:46.749Z,33.51
2022-08-18T12:35:15.201Z,33.56
2022-08-18T12:38:11.447Z,33.60
2022-08-18T12:40:32.549Z,33.63
2022-08-18T12:42:59.863Z,33.63
2022-08-18T12:45:28.186Z,33.55
2022-08-18T12:47:55.841Z,33.51
2022-08-18T12:53:12.502Z,33.50
2022-08-18T12:55:45.472Z,33.54
2022-08-18T12:58:13.033Z,33.55
2022-08-18T13:00:41.010Z,33.57
2022-08-18T13:03:08.698Z,33.63
2022-08-18T13:05:37.386Z,33.64
2022-08-18T13:08:09.618Z,33.66
2022-08-18T13:10:45.208Z,33.62
2022-08-18T13:13:19.032Z,33.62
2022-08-18T13:15:55.626Z,33.69
2022-08-18T13:18:27.308Z,33.78
2022-08-18T13:20:58.302Z,33.84
2022-08-18T13:23:27.345Z,33.91
2022-08-18T13:26:01.420Z,33.94
2022-08-18T13:28:35.735Z,34.00
2022-08-18T13:31:06.979Z,34.05
2022-08-18T13:33:56.573Z,34.03
2022-08-18T13:36:22.533Z,33.99
2022-08-18T13:38:54.780Z,34.07
2022-08-18T13:43:52.201Z,34.09
2022-08-18T13:46:24.432Z,34.11
2022-08-18T13:49:02.914Z,34.15
2022-08-18T13:51:30.304Z,34.15
2022-08-18T13:54:17.804Z,34.19
2022-08-18T13:56:51.849Z,34.19
2022-08-18T13:59:21.846Z,34.25
2022-08-18T14:01:53.199Z,34.23
2022-08-18T14:04:22.357Z,34.29
2022-08-18T14:06:57.317Z,34.24
2022-08-18T14:09:35.819Z,34.23
2022-08-18T14:12:22.669Z,34.24
2022-08-18T14:14:55.660Z,34.28
2022-08-18T14:17:25.435Z,34.27
2022-08-18T14:20:21.174Z,34.28
2022-08-18T14:23:23.558Z,34.30
2022-08-18T14:26:09.669Z,34.29
2022-08-18T14:28:38.294Z,34.30
2022-08-18T14:31:08.540Z,34.28
2022-08-18T14:33:51.803Z,34.27
2022-08-18T14:36:30.387Z,34.29
2022-08-18T14:38:59.334Z,34.35
2022-08-18T14:41:27.331Z,34.35
2022-08-18T14:44:12.666Z,34.37
2022-08-18T14:46:52.438Z,34.37
2022-08-18T14:49:28.089Z,34.35
2022-08-18T14:51:56.027Z,34.34
2022-08-18T14:54:24.192Z,34.29
2022-08-18T14:56:56.042Z,34.27
2022-08-18T14:59:23.575Z,34.23
2022-08-18T15:01:51.364Z,34.19
2022-08-18T15:04:19.594Z,34.15
2022-08-18T15:06:56.161Z,34.09
2022-08-18T15:09:26.903Z,34.02
2022-08-18T15:11:56.339Z,33.99
2022-08-18T15:14:32.976Z,33.95
2022-08-18T15:17:11.861Z,33.91
2022-08-18T15:19:59.707Z,33.88
2022-08-18T15:22:46.449Z,33.82
2022-08-18T15:25:34.300Z,33.77
2022-08-18T15:28:02.041Z,33.71
2022-08-18T15:30:29.049Z,33.70
2022-08-18T15:32:58.962Z,33.73
2022-08-18T15:35:25.984Z,33.70
2022-08-18T15:37:54.665Z,33.70
2022-08-18T15:40:30.816Z,33.70
2022-08-18T15:43:10.032Z,33.74
2022-08-18T15:45:56.380Z,33.67
2022-08-18T15:48:28.267Z,33.63
2022-08-18T15:50:55.754Z,33.62
2022-08-18T15:53:30.120Z,33.64
2022-08-18T15:55:57.830Z,33.58
2022-08-18T15:58:26.861Z,33.57
2022-08-18T16:00:56.480Z,33.53
2022-08-18T16:03:25.823Z,33.50
2022-08-18T16:05:55.079Z,33.49
2022-08-18T16:08:25.576Z,33.49
2022-08-18T16:10:54.436Z,33.47
2022-08-18T16:13:22.623Z,33.47
2022-08-18T16:15:50.252Z,33.44
2022-08-18T16:18:21.015Z,33.38
2022-08-18T16:20:50.606Z,33.36
2022-08-18T16:23:20.094Z,33.31
2022-08-18T16:25:46.932Z,33.29
2022-08-18T16:28:13.748Z,33.21
2022-08-18T16:30:41.898Z,33.16
2022-08-18T16:33:09.392Z,33.08
2022-08-18T16:35:37.473Z,33.06
2022-08-18T16:38:09.356Z,33.02
2022-08-18T16:40:37.429Z,32.95
2022-08-18T16:43:06.657Z,32.85
2022-08-18T16:45:36.854Z,32.86
2022-08-18T16:48:06.397Z,32.80
2022-08-18T16:50:33.469Z,32.69
2022-08-18T16:53:00.257Z,32.65
2022-08-18T16:55:27.274Z,32.48
2022-08-18T16:58:15.609Z,32.36
2022-08-18T17:01:02.198Z,32.24
2022-08-18T17:03:48.301Z,32.11
2022-08-18T17:06:19.110Z,32.04
2022-08-18T17:08:47.144Z,31.99
2022-08-18T17:11:18.406Z,31.89
2022-08-18T17:13:48.094Z,31.86
2022-08-18T17:16:18.240Z,31.80
2022-08-18T17:18:46.162Z,31.77
2022-08-18T17:21:18.422Z,31.69
2022-08-18T17:23:46.652Z,31.62
2022-08-18T17:26:28.167Z,31.59
2022-08-18T17:29:10.164Z,31.51
2022-08-18T17:31:45.956Z,31.45
2022-08-18T17:34:15.238Z,31.42
2022-08-18T17:36:53.905Z,31.35
2022-08-18T17:39:34.928Z,31.28
2022-08-18T17:42:20.333Z,31.26
2022-08-18T17:44:52.279Z,31.17
2022-08-18T17:47:26.791Z,31.14
2022-08-18T17:50:28.188Z,31.02
2022-08-18T17:53:06.163Z,30.94
2022-08-18T17:55:44.679Z,30.88
2022-08-18T17:58:40.592Z,30.88
2022-08-18T18:01:10.188Z,30.81
2022-08-18T18:03:37.984Z,30.71
2022-08-18T18:06:18.525Z,30.67
2022-08-18T18:09:19.515Z,30.58
2022-08-18T18:11:47.521Z,30.61
2022-08-18T18:14:28.189Z,30.52
2022-08-18T18:17:17.341Z,30.44
2022-08-18T18:19:49.410Z,30.40
2022-08-18T18:22:28.608Z,30.36
2022-08-18T18:25:07.778Z,30.33
2022-08-18T18:27:47.267Z,30.29
2022-08-18T18:30:16.944Z,30.30
2022-08-18T18:33:15.204Z,30.20
2022-08-18T18:35:57.819Z,30.17
2022-08-18T18:38:45.988Z,30.15
2022-08-18T18:41:12.729Z,30.08
2022-08-18T18:43:44.563Z,30.05
2022-08-18T18:46:30.207Z,30.03
2022-08-18T18:49:16.448Z,29.99
2022-08-18T18:52:49.411Z,29.94
2022-08-18T18:55:24.150Z,29.90
2022-08-18T18:57:57.319Z,29.88
2022-08-18T19:00:41.816Z,29.87
2022-08-18T19:03:14.764Z,29.79
2022-08-18T19:06:18.674Z,29.78
2022-08-18T19:09:13.620Z,29.77
2022-08-18T19:12:29.572Z,29.71
2022-08-18T19:15:08.292Z,29.64
2022-08-18T19:17:49.591Z,29.64
2022-08-18T19:20:36.861Z,29.60
2022-08-18T19:23:31.412Z,29.57
2022-08-18T19:26:08.484Z,29.55
2022-08-18T19:29:12.591Z,29.56
2022-08-18T19:31:43.008Z,29.53
2022-08-18T19:34:22.806Z,29.45
2022-08-18T19:37:18.273Z,29.45
2022-08-18T19:40:09.848Z,29.46
2022-08-18T19:42:42.994Z,29.39
2022-08-18T19:45:29.559Z,29.33
2022-08-18T19:48:21.854Z,29.27
2022-08-18T19:51:17.634Z,29.28
2022-08-18T19:54:09.253Z,29.19
2022-08-18T19:57:09.390Z,29.17
2022-08-18T20:00:06.011Z,29.10
2022-08-18T20:03:12.409Z,29.03
2022-08-18T20:06:34.382Z,29.01
2022-08-18T20:09:44.424Z,28.97
2022-08-18T20:12:37.973Z,28.93
2022-08-18T20:15:25.034Z,28.88
2022-08-18T20:17:57.361Z,28.85
2022-08-18T20:20:34.819Z,28.90
2022-08-18T20:23:34.640Z,28.86
2022-08-18T20:26:01.633Z,28.85
2022-08-18T20:28:39.597Z,28.77
2022-08-18T20:31:16.414Z,28.73
2022-08-18T20:34:14.211Z,28.75
2022-08-18T20:36:43.987Z,28.70
2022-08-18T20:39:54.818Z,28.64
2022-08-18T20:42:21.597Z,28.58
2022-08-18T20:44:48.296Z,28.57
2022-08-18T20:47:34.725Z,28.55
2022-08-18T20:50:34.821Z,28.57
2022-08-18T20:53:30.484Z,28.54
2022-08-18T20:56:52.516Z,28.48
2022-08-18T20:59:35.712Z,28.52
2022-08-18T21:02:31.656Z,28.46
2022-08-18T21:05:00.692Z,28.43
2022-08-18T21:08:02.167Z,28.43
2022-08-18T21:10:33.032Z,28.47
2022-08-18T21:13:04.103Z,28.37
2022-08-18T21:15:38.285Z,28.32
2022-08-18T21:18:19.444Z,28.34
2022-08-18T21:20:53.425Z,28.31
2022-08-18T21:23:37.603Z,28.28
2022-08-18T21:26:09.015Z,28.29
2022-08-18T21:28:41.013Z,28.29
2022-08-18T21:31:44.382Z,28.27
2022-08-18T21:34:34.726Z,28.30
2022-08-18T21:37:10.325Z,28.32
2022-08-18T21:39:57.948Z,28.28
2022-08-18T21:42:40.870Z,28.24
2022-08-18T21:45:21.829Z,28.25
2022-08-18T21:48:05.200Z,28.25
2022-08-18T21:50:35.296Z,28.28
2022-08-18T21:53:17.958Z,28.26
2022-08-18T21:55:51.405Z,28.25
2022-08-18T21:58:45.164Z,28.23
2022-08-18T22:01:29.884Z,28.18
2022-08-18T22:04:33.542Z,28.18
2022-08-18T22:07:02.380Z,28.13
2022-08-18T22:09:54.276Z,28.12
2022-08-18T22:12:53.688Z,28.09
2022-08-18T22:15:46.808Z,28.07
2022-08-18T22:18:16.495Z,28.08
2022-08-18T22:20:52.084Z,28.06
2022-08-18T22:23:50.707Z,28.07
2022-08-18T22:26:17.442Z,28.06
2022-08-18T22:29:33.902Z,28.02
2022-08-18T22:32:03.370Z,28.03
2022-08-18T22:34:34.252Z,28.04
2022-08-18T22:37:07.606Z,28.04
2022-08-18T22:39:52.890Z,28.04
2022-08-18T22:42:27.359Z,28.00
2022-08-18T22:44:56.371Z,27.97
2022-08-18T22:47:25.823Z,27.93
2022-08-18T22:49:52.685Z,28.01
2022-08-18T22:52:35.803Z,27.97
2022-08-18T22:55:07.973Z,27.99
2022-08-18T22:57:37.380Z,27.94
2022-08-18T23:00:14.382Z,28.00
2022-08-18T23:02:42.232Z,27.97
2022-08-18T23:05:10.391Z,27.97
2022-08-18T23:07:37.348Z,27.93
2022-08-18T23:10:08.155Z,27.95
2022-08-18T23:12:42.978Z,27.95
2022-08-18T23:15:13.786Z,27.95
2022-08-18T23:17:43.020Z,27.92
2022-08-18T23:20:17.611Z,27.90
2022-08-18T23:22:46.581Z,27.89
2022-08-18T23:25:14.100Z,27.89
2022-08-18T23:27:42.442Z,27.87
2022-08-18T23:30:10.566Z,27.89
2022-08-18T23:32:37.399Z,27.83
2022-08-18T23:35:04.984Z,27.83
2022-08-18T23:37:31.904Z,27.83
2022-08-18T23:39:59.454Z,27.80
2022-08-18T23:42:26.538Z,27.76
2022-08-18T23:44:53.361Z,27.76
2022-08-18T23:47:20.678Z,27.69
2022-08-18T23:49:47.920Z,27.70
2022-08-18T23:52:15.056Z,27.65
2022-08-18T23:54:41.895Z,27.68
2022-08-18T23:57:08.786Z,27.63
2022-08-18T23:59:35.600Z,27.58
